ADDS METAR Data INFO
IDs: Format: Raw Decoded Include TAF

Data at: 0919 UTC 13 Dec 2017

KRWV 130855Z AUTO 00000KT 10SM CLR 00/M02 A3018 RMK AO2 T10051022
KRWV 130835Z AUTO 00000KT 10SM CLR 00/M02 A3019 RMK AO2 T00041022
KRWV 130815Z AUTO 00000KT 10SM CLR 00/M02 A3020 RMK AO2 T10031025
KRWV 130755Z AUTO 27003KT 10SM CLR 02/M01 A3022 RMK AO2 T00211014
KRWV 130735Z AUTO 34003KT 10SM CLR 02/M02 A3021 RMK AO2 T00211017
KRWV 130715Z AUTO 00000KT 10SM CLR 03/M02 A3022 RMK AO2 T00261016
KRWV 130655Z AUTO 00000KT 10SM CLR 04/M02 A3022 RMK AO2 T00431021
KRWV 130635Z AUTO 29003KT 10SM CLR 04/M02 A3023 RMK AO2 T00381021
KRWV 130615Z AUTO 32003KT 10SM CLR 04/M02 A3024 RMK AO2 T00381021
KRWV 130555Z AUTO 29003KT 10SM CLR 03/M02 A3025 RMK AO2 T00311020 10100 20019
KRWV 130535Z AUTO 28003KT 10SM CLR 03/M02 A3025 RMK AO2 T00271018
KRWV 130515Z AUTO 00000KT 10SM CLR 03/M02 A3025 RMK AO2 T00271016
KRWV 130455Z AUTO 00000KT 10SM CLR 03/M02 A3026 RMK AO2 T00301018
KRWV 130435Z AUTO 00000KT 10SM CLR 04/M02 A3026 RMK AO2 T00371021
KRWV 130415Z AUTO 00000KT 10SM CLR 04/M02 A3027 RMK AO2 T00411019
KRWV 130355Z AUTO 33004KT 10SM CLR 04/M02 A3027 RMK AO2 T00431017
KRWV 130335Z AUTO 00000KT 10SM CLR 03/M01 A3027 RMK AO2 T00351014
KRWV 130315Z AUTO 30003KT 10SM CLR 05/M02 A3027 RMK AO2 T00521020
KRWV 130255Z AUTO 27003KT 10SM CLR 04/M01 A3027 RMK AO2 T00371012
KRWV 130235Z AUTO 00000KT 10SM CLR 05/M02 A3027 RMK AO2 T00521017
KRWV 130215Z AUTO 00000KT 10SM CLR 06/M02 A3027 RMK AO2 T00641016
KRWV 130155Z AUTO 35003KT 10SM CLR 07/M02 A3028 RMK AO2 T00711021
KRWV 130135Z AUTO 34003KT 10SM CLR 08/M03 A3028 RMK AO2 T00821025
KRWV 130115Z AUTO 34003KT 10SM CLR 08/M03 A3028 RMK AO2 T00811025
KRWV 130055Z AUTO 35003KT 10SM CLR 09/M02 A3028 RMK AO2 T00891025
KRWV 130035Z AUTO 35004KT 10SM CLR 09/M03 A3027 RMK AO2 T00941025
KRWV 130015Z AUTO 35005KT 10SM CLR 09/M03 A3027 RMK AO2 T00931027
KRWV 122355Z AUTO 35005KT 10SM CLR 10/M03 A3027 RMK AO2 T01041031 10154 20101 401700079
KRWV 122335Z AUTO 35005KT 10SM CLR 11/M03 A3028 RMK AO2 T01061032
KRWV 122315Z AUTO 35006KT 10SM CLR 12/M03 A3028 RMK AO2 T01201033
KRWV 122255Z AUTO 34008KT 10SM CLR 13/M04 A3028 RMK AO2 T01311036
KRWV 122235Z AUTO 34008KT 10SM CLR 14/M03 A3028 RMK AO2 T01381032
KRWV 122215Z AUTO 35010G15KT 10SM CLR 14/M03 A3029 RMK AO2 T01421035
KRWV 122155Z AUTO 34012G18KT 10SM CLR 15/M03 A3029 RMK AO2 T01451033
KRWV 122135Z AUTO 36014KT 10SM CLR 15/M03 A3029 RMK AO2 T01471030
KRWV 122115Z AUTO 34013G18KT 10SM CLR 15/M02 A3029 RMK AO2 T01501023
KRWV 122055Z AUTO 35015G18KT 10SM CLR 15/M02 A3029 RMK AO2 T01501021
KRWV 122035Z AUTO 35013KT 10SM CLR 15/M02 A3030 RMK AO2 T01521018
KRWV 122015Z AUTO 33013G17KT 10SM CLR 15/M02 A3030 RMK AO2 T01501015
KRWV 121955Z AUTO 33014KT 10SM CLR 15/M02 A3031 RMK AO2 T01491019
KRWV 121935Z AUTO 33013G18KT 10SM CLR 15/M01 A3031 RMK AO2 T01491013
KRWV 121915Z AUTO 34013G19KT 10SM CLR 15/M01 A3032 RMK AO2 T01461008
KRWV 121855Z AUTO 36012G19KT 10SM CLR 14/M02 A3034 RMK AO2 T01451019
KRWV 121835Z AUTO 34014KT 10SM CLR 14/M01 A3035 RMK AO2 T01441011
KRWV 121815Z AUTO 35014G18KT 10SM CLR 14/00 A3036 RMK AO2 T01431004
KRWV 121755Z AUTO 35009G17KT 10SM CLR 14/M01 A3037 RMK AO2 T01361009 10140 20079
KRWV 121735Z AUTO 35015G23KT 10SM CLR 13/M02 A3038 RMK AO2 T01301016
KRWV 121715Z AUTO 36016KT 10SM CLR 13/M01 A3039 RMK AO2 T01311008
KRWV 121655Z AUTO 36011KT 10SM CLR 13/M01 A3040 RMK AO2 T01261010
KRWV 121635Z AUTO 35010G20KT 10SM CLR 12/M01 A3040 RMK AO2 T01251009
KRWV 121615Z AUTO 36014G20KT 10SM CLR 12/M01 A3040 RMK AO2 T01201013
KRWV 121555Z AUTO 36015KT 10SM CLR 12/M01 A3040 RMK AO2 T01171012
KRWV 121535Z AUTO 36013G20KT 10SM CLR 11/M01 A3039 RMK AO2 T01131012
KRWV 121515Z AUTO 36013KT 10SM CLR 11/M02 A3039 RMK AO2 T01081018
KRWV 121450Z AUTO 36010G17KT 10SM CLR 10/M02 A3038 RMK AO2 T01011021
KRWV 121435Z AUTO 36011KT 10SM CLR 10/M02 A3038 RMK AO2 T00971022
KRWV 121415Z AUTO 36009KT 10SM CLR 09/M02 A3037 RMK AO2 T00901022
KRWV 121355Z AUTO 35008KT 10SM CLR 09/M02 A3036 RMK AO2 T00861023
KRWV 121335Z AUTO 01007KT 10SM CLR 08/M02 A3035 RMK AO2 T00821025
KRWV 121315Z AUTO 01008KT 10SM CLR 08/M03 A3035 RMK AO2 T00811026
KRWV 121255Z AUTO 36009KT 10SM CLR 08/M03 A3034 RMK AO2 T00831028
KRWV 121235Z AUTO 36009KT 10SM CLR 09/M03 A3033 RMK AO2 T00891032
KRWV 121215Z AUTO 36009KT 10SM CLR 09/M03 A3032 RMK AO2 T00871033
KRWV 121155Z AUTO 36008KT 10SM CLR 09/M03 A3030 RMK AO2 10125 20081
KRWV 121135Z AUTO 01008KT 10SM CLR 09/M03 A3030 RMK AO2 T00951034
KRWV 121115Z AUTO 36009KT 10SM CLR 10/M03 A3029 RMK AO2 T00971031
KRWV 121055Z AUTO 36008KT 10SM CLR 10/M03 A3028 RMK AO2 T01031030
KRWV 121035Z AUTO 36008KT 10SM CLR 11/M03 A3027 RMK AO2 T01051028
KRWV 121015Z AUTO 36008KT 10SM CLR 11/M02 A3027 RMK AO2 T01081022
KRWV 120955Z AUTO 36011G16KT 10SM CLR 11/M02 A3026 RMK AO2 T01111019
KRWV 120935Z AUTO 36010G15KT 10SM CLR 11/M01 A3025 RMK AO2 T01081010
KRWV 120915Z AUTO 35007KT 10SM CLR 10/M01 A3024 RMK AO2 T01041006
KRWV 120855Z AUTO 35008KT 10SM CLR 10/00 A3023 RMK AO2 T01030003
KRWV 120835Z AUTO 35007KT 10SM CLR 11/01 A3023 RMK AO2 T01050011
KRWV 120815Z AUTO 34007KT 10SM CLR 11/01 A3022 RMK AO2 T01120013
KRWV 120755Z AUTO 32009KT 10SM CLR 12/01 A3021 RMK AO2 T01240013
KRWV 120735Z AUTO 30007KT 10SM CLR 09/02 A3021 RMK AO2 T00950020
KRWV 120715Z AUTO 27005KT 10SM CLR 09/02 A3020 RMK AO2 T00940017
KRWV 120655Z AUTO 26004KT 10SM CLR 09/02 A3020 RMK AO2 T00940019
KRWV 120635Z AUTO 26005KT 10SM CLR 10/02 A3019 RMK AO2 T00960019
KRWV 120615Z AUTO 26005KT 10SM CLR 10/02 A3020 RMK AO2 T01000019
KRWV 120555Z AUTO 27004KT 10SM CLR 10/02 A3019 RMK AO2 T01030019 10170 20102
KRWV 120535Z AUTO 26005KT 10SM CLR 11/02 A3020 RMK AO2 T01050019
KRWV 120515Z AUTO 25005KT 10SM CLR 11/01 A3020 RMK AO2 T01070014
KRWV 120455Z AUTO 24004KT 10SM CLR 12/01 A3020 RMK AO2 T01180012
KRWV 120435Z AUTO 25004KT 10SM CLR 12/01 A3020 RMK AO2 T01180014
KRWV 120415Z AUTO 25003KT 10SM CLR 12/01 A3019 RMK AO2 T01230011
KRWV 120355Z AUTO 26003KT 10SM CLR 12/01 A3019 RMK AO2 T01230010
KRWV 120335Z AUTO 25003KT 10SM CLR 12/01 A3019 RMK AO2 T01200011
KRWV 120315Z AUTO 23004KT 10SM CLR 12/01 A3020 RMK AO2 T01240014
KRWV 120255Z AUTO 24005KT 10SM CLR 13/01 A3020 RMK AO2 T01250012
KRWV 120235Z AUTO 25004KT 10SM CLR 13/01 A3019 RMK AO2 T01300006
KRWV 120215Z AUTO 25004KT 10SM CLR 14/00 A3019 RMK AO2 T01370001
KRWV 120155Z AUTO 23004KT 10SM CLR 14/00 A3019 RMK AO2 T01400003
KRWV 120135Z AUTO 23004KT 10SM CLR 14/00 A3019 RMK AO2 T01441000
KRWV 120115Z AUTO 22004KT 10SM CLR 15/M01 A3019 RMK AO2 T01461007
KRWV 120055Z AUTO 21004KT 10SM CLR 16/M01 A3019 RMK AO2 T01611008
KRWV 120035Z AUTO 21005KT 10SM CLR 16/M01 A3018 RMK AO2 T01621013
KRWV 120015Z AUTO 22004KT 10SM CLR 17/M02 A3018 RMK AO2 T01691024
KRWV 112355Z AUTO 00000KT 10SM CLR 16/M01 A3017 RMK AO2 T01611013 10246 20160 402460016
KRWV 112335Z AUTO 00000KT 10SM CLR 18/M02 A3017 RMK AO2 T01781020
KRWV 112315Z AUTO 21003KT 10SM CLR 20/M03 A3017 RMK AO2 T01971030
KRWV 112255Z AUTO 23006KT 10SM CLR 21/M04 A3017 RMK AO2 T02081039
KRWV 112235Z AUTO 23007KT 10SM CLR 22/M05 A3017 RMK AO2 T02221051
KRWV 112215Z AUTO 23008KT 10SM CLR 23/M04 A3017 RMK AO2
KRWV 112155Z AUTO 22007KT 10SM CLR 23/M03 A3017 RMK AO2 T02311029
KRWV 112135Z AUTO 22006KT 10SM CLR 23/M01 A3018 RMK AO2 T02341012